createdAt,value
2018-04-23T00:00:01.329Z,99.99
2018-04-23T00:01:04.057Z,99.99
2018-04-23T00:02:01.411Z,99.99
2018-04-23T00:03:00.716Z,99.99
2018-04-23T00:04:02.159Z,99.99
2018-04-23T00:05:01.121Z,99.99
2018-04-23T00:06:02.659Z,99.99
2018-04-23T00:07:00.380Z,99.99
2018-04-23T00:08:01.969Z,99.99
2018-04-23T00:09:00.666Z,99.99
2018-04-23T00:10:00.749Z,99.99
2018-04-23T00:11:02.703Z,99.99
2018-04-23T00:12:02.811Z,99.99
2018-04-23T00:13:01.076Z,99.99
2018-04-23T00:14:00.263Z,99.99
2018-04-23T00:15:01.403Z,99.99
2018-04-23T00:16:00.118Z,99.99
2018-04-23T00:17:00.499Z,99.99
2018-04-23T00:18:01.623Z,99.99
2018-04-23T00:19:04.361Z,99.99
2018-04-23T00:20:07.479Z,99.99
2018-04-23T00:21:00.679Z,99.99
2018-04-23T00:22:00.681Z,99.99
2018-04-23T00:23:01.288Z,99.99
2018-04-23T00:24:01.212Z,99.99
2018-04-23T00:25:03.203Z,99.99
2018-04-23T00:26:02.203Z,99.99
2018-04-23T00:27:00.531Z,99.99
2018-04-23T00:28:02.220Z,99.99
2018-04-23T00:29:01.805Z,99.99
2018-04-23T00:30:02.735Z,99.99
2018-04-23T00:31:01.673Z,99.99
2018-04-23T00:32:01.215Z,99.99
2018-04-23T00:33:02.051Z,99.99
2018-04-23T00:34:01.015Z,99.99
2018-04-23T00:35:00.134Z,99.99
2018-04-23T00:36:04.476Z,99.99
2018-04-23T00:37:00.563Z,99.99
2018-04-23T00:38:02.298Z,99.99
2018-04-23T00:39:02.080Z,99.99
2018-04-23T00:40:01.357Z,99.99
2018-04-23T00:41:02.418Z,99.99
2018-04-23T00:42:03.678Z,99.99
2018-04-23T00:43:04.975Z,99.99
2018-04-23T00:44:08.471Z,99.99
2018-04-23T00:45:01.744Z,99.99
2018-04-23T00:46:02.277Z,99.99
2018-04-23T00:47:06.978Z,99.99
2018-04-23T00:48:07.264Z,99.99
2018-04-23T00:49:08.947Z,99.99
2018-04-23T00:50:07.933Z,99.99
2018-04-23T00:51:06.927Z,99.99
2018-04-23T00:52:06.176Z,99.99
2018-04-23T00:53:02.247Z,99.99
2018-04-23T00:54:01.687Z,99.99
2018-04-23T00:55:01.886Z,99.99
2018-04-23T00:56:00.735Z,99.99
2018-04-23T00:57:02.952Z,99.99
2018-04-23T00:58:01.777Z,99.99
2018-04-23T00:59:01.300Z,99.99
2018-04-23T01:00:04.175Z,99.99
2018-04-23T01:01:02.692Z,99.99
2018-04-23T01:02:03.286Z,99.99
2018-04-23T01:03:02.161Z,99.99
2018-04-23T01:04:03.200Z,99.99
2018-04-23T01:05:00.424Z,99.99
2018-04-23T01:06:01.261Z,99.99
2018-04-23T01:07:01.920Z,99.99
2018-04-23T01:08:03.208Z,99.99
2018-04-23T01:09:01.936Z,99.99
2018-04-23T01:10:02.923Z,99.99
2018-04-23T01:11:02.600Z,99.99
2018-04-23T01:12:01.850Z,99.99
2018-04-23T01:13:03.212Z,99.99
2018-04-23T01:14:02.226Z,99.99
2018-04-23T01:15:00.708Z,99.99
2018-04-23T01:16:03.088Z,99.99
2018-04-23T01:17:02.006Z,99.99
2018-04-23T01:18:02.053Z,99.99
2018-04-23T01:19:01.790Z,99.99
2018-04-23T01:20:03.218Z,99.99
2018-04-23T01:21:01.942Z,99.99
2018-04-23T01:22:01.736Z,99.99
2018-04-23T01:23:02.805Z,99.99
2018-04-23T01:24:04.168Z,99.99
2018-04-23T01:25:03.541Z,99.99
2018-04-23T01:26:00.806Z,99.99
2018-04-23T01:27:03.479Z,99.99
2018-04-23T01:28:01.967Z,99.99
2018-04-23T01:29:09.624Z,99.99
2018-04-23T01:30:00.843Z,99.99
2018-04-23T01:31:01.229Z,99.99
2018-04-23T01:32:03.085Z,99.99
2018-04-23T01:33:00.827Z,99.99
2018-04-23T01:34:01.592Z,99.99
2018-04-23T01:35:01.692Z,99.99
2018-04-23T01:36:02.284Z,99.99
2018-04-23T01:37:03.250Z,99.99
2018-04-23T01:38:02.423Z,99.99
2018-04-23T01:39:03.973Z,99.99
2018-04-23T01:40:03.705Z,99.99
2018-04-23T01:41:00.420Z,99.99
2018-04-23T01:42:01.548Z,99.99
2018-04-23T01:43:01.230Z,99.99
2018-04-23T01:44:01.566Z,99.99
2018-04-23T01:45:03.811Z,99.99
2018-04-23T01:46:00.595Z,99.99
2018-04-23T01:47:01.840Z,99.99
2018-04-23T01:48:00.943Z,99.99
2018-04-23T01:49:03.416Z,99.99
2018-04-23T01:50:05.581Z,99.99
2018-04-23T01:51:01.208Z,99.99
2018-04-23T01:52:01.208Z,99.99
2018-04-23T01:53:00.774Z,99.99
2018-04-23T01:54:00.792Z,99.99
2018-04-23T01:55:02.446Z,99.99
2018-04-23T01:56:01.537Z,99.99
2018-04-23T01:57:01.232Z,99.99
2018-04-23T01:58:02.881Z,99.99
2018-04-23T01:59:02.075Z,99.99
2018-04-23T02:00:03.333Z,99.99
2018-04-23T02:01:00.781Z,99.99
2018-04-23T02:02:00.937Z,99.99
2018-04-23T02:03:01.216Z,99.99
2018-04-23T02:04:00.840Z,99.99
2018-04-23T02:05:01.207Z,99.99
2018-04-23T02:06:04.784Z,99.99
2018-04-23T02:07:00.883Z,99.99
2018-04-23T02:08:02.059Z,99.99
2018-04-23T02:09:03.255Z,99.99
2018-04-23T02:10:01.934Z,99.99
2018-04-23T02:11:01.225Z,99.99
2018-04-23T02:12:01.656Z,99.99
2018-04-23T02:13:00.778Z,99.99
2018-04-23T02:14:02.488Z,99.99
2018-04-23T02:15:01.218Z,99.99
2018-04-23T02:16:00.499Z,99.99
2018-04-23T02:17:03.621Z,99.99
2018-04-23T02:18:01.222Z,99.99
2018-04-23T02:19:02.608Z,99.99
2018-04-23T02:20:02.455Z,99.99
2018-04-23T02:21:00.620Z,99.99
2018-04-23T02:22:02.011Z,99.99
2018-04-23T02:23:01.971Z,99.99
2018-04-23T02:24:05.225Z,99.99
2018-04-23T02:25:02.750Z,99.99
2018-04-23T02:26:01.222Z,99.99
2018-04-23T02:27:01.216Z,99.99
2018-04-23T02:28:02.216Z,99.99
2018-04-23T02:29:03.670Z,99.99
2018-04-23T02:30:05.545Z,99.99
2018-04-23T02:31:02.718Z,99.99
2018-04-23T02:32:03.724Z,99.99
2018-04-23T02:33:03.618Z,99.99
2018-04-23T02:34:01.218Z,99.99
2018-04-23T02:35:00.941Z,99.99
2018-04-23T02:36:03.866Z,99.99
2018-04-23T02:37:03.652Z,99.99
2018-04-23T02:38:01.619Z,99.99
2018-04-23T02:39:01.183Z,99.99
2018-04-23T02:40:03.595Z,99.99
2018-04-23T02:41:01.878Z,99.99
2018-04-23T02:42:04.490Z,99.99
2018-04-23T02:43:00.859Z,99.99
2018-04-23T02:44:00.803Z,99.99
2018-04-23T02:45:01.771Z,99.99
2018-04-23T02:46:00.855Z,99.99
2018-04-23T02:47:02.781Z,99.99
2018-04-23T02:48:00.719Z,99.99
2018-04-23T02:49:02.232Z,99.99
2018-04-23T02:50:01.234Z,99.99
2018-04-23T02:51:05.330Z,99.99
2018-04-23T02:52:01.833Z,99.99
2018-04-23T02:53:01.735Z,99.99
2018-04-23T02:54:04.605Z,99.99
2018-04-23T02:55:01.010Z,99.99
2018-04-23T02:56:01.093Z,99.99
2018-04-23T02:57:01.036Z,99.99
2018-04-23T02:58:01.042Z,99.99
2018-04-23T02:59:02.130Z,99.99
2018-04-23T03:00:05.935Z,99.99
2018-04-23T03:01:02.546Z,99.99
2018-04-23T03:02:02.335Z,99.99
2018-04-23T03:03:03.295Z,99.99
2018-04-23T03:04:01.905Z,99.99
2018-04-23T03:05:03.539Z,99.99
2018-04-23T03:06:01.320Z,99.99
2018-04-23T03:07:01.837Z,99.99
2018-04-23T03:08:01.505Z,99.99
2018-04-23T03:09:02.469Z,99.99
2018-04-23T03:10:02.956Z,99.99
2018-04-23T03:11:01.663Z,99.99
2018-04-23T03:12:03.971Z,99.99
2018-04-23T03:13:01.930Z,99.99
2018-04-23T03:14:01.059Z,99.99
2018-04-23T03:15:03.552Z,99.99
2018-04-23T03:16:02.839Z,99.99
2018-04-23T03:17:02.309Z,99.99
2018-04-23T03:18:01.432Z,99.99
2018-04-23T03:19:00.911Z,99.99
2018-04-23T03:20:01.233Z,99.99
2018-04-23T03:21:03.488Z,99.99
2018-04-23T03:22:01.293Z,99.99
2018-04-23T03:23:02.953Z,99.99
2018-04-23T03:24:01.950Z,99.99
2018-04-23T03:25:01.198Z,99.99
2018-04-23T03:26:01.001Z,99.99
2018-04-23T03:27:01.257Z,99.99
2018-04-23T03:28:01.202Z,99.99
2018-04-23T03:29:01.780Z,99.99
2018-04-23T03:30:01.794Z,99.99
2018-04-23T03:31:01.627Z,99.99
2018-04-23T03:32:06.126Z,99.99
2018-04-23T03:33:01.740Z,99.99
2018-04-23T03:34:02.506Z,99.99
2018-04-23T03:35:01.619Z,99.99
2018-04-23T03:36:03.565Z,99.99
2018-04-23T03:37:04.731Z,99.99
2018-04-23T03:38:03.380Z,99.99
2018-04-23T03:39:01.032Z,99.99
2018-04-23T03:40:00.964Z,99.99
2018-04-23T03:41:01.901Z,99.99
2018-04-23T03:42:03.011Z,99.99
2018-04-23T03:43:01.165Z,99.99
2018-04-23T03:44:00.987Z,99.99
2018-04-23T03:45:04.520Z,99.99
2018-04-23T03:46:01.800Z,99.99
2018-04-23T03:47:02.244Z,99.99
2018-04-23T03:48:04.282Z,99.99
2018-04-23T03:49:06.243Z,99.99
2018-04-23T03:50:01.382Z,99.99
2018-04-23T03:51:02.209Z,99.99
2018-04-23T03:52:03.592Z,99.99
2018-04-23T03:53:01.682Z,99.99
2018-04-23T03:54:03.599Z,99.99
2018-04-23T03:55:01.259Z,99.99
2018-04-23T03:56:04.019Z,99.99
2018-04-23T03:57:02.706Z,99.99
2018-04-23T03:58:01.379Z,99.99
2018-04-23T03:59:01.954Z,99.99
2018-04-23T04:00:02.192Z,99.99
2018-04-23T04:01:01.052Z,99.99
2018-04-23T04:02:02.538Z,99.99
2018-04-23T04:03:01.487Z,99.99
2018-04-23T04:04:01.084Z,99.99
2018-04-23T04:05:02.375Z,99.99
2018-04-23T04:06:01.755Z,99.99
2018-04-23T04:07:02.473Z,99.99
2018-04-23T04:08:01.413Z,99.99
2018-04-23T04:09:03.818Z,99.99
2018-04-23T04:10:01.255Z,99.99
2018-04-23T04:11:02.355Z,99.99
2018-04-23T04:12:01.990Z,99.99
2018-04-23T04:13:01.104Z,99.99
2018-04-23T04:14:02.509Z,99.99
2018-04-23T04:15:03.064Z,99.99
2018-04-23T04:16:01.279Z,99.99
2018-04-23T04:17:01.412Z,99.99
2018-04-23T04:18:01.329Z,99.99
2018-04-23T04:19:03.144Z,99.99
2018-04-23T04:20:02.572Z,99.99
2018-04-23T04:21:02.351Z,99.99
2018-04-23T04:22:01.267Z,99.99
2018-04-23T04:23:02.817Z,99.99
2018-04-23T04:24:03.508Z,99.99
2018-04-23T04:25:02.472Z,99.99
2018-04-23T04:26:04.010Z,99.99
2018-04-23T04:27:01.772Z,99.99
2018-04-23T04:28:02.542Z,99.99
2018-04-23T04:29:01.801Z,99.99
2018-04-23T04:30:02.470Z,99.99
2018-04-23T04:31:02.032Z,99.99
2018-04-23T04:32:01.822Z,99.99
2018-04-23T04:33:01.428Z,99.99
2018-04-23T04:34:01.328Z,99.99
2018-04-23T04:35:01.333Z,99.99
2018-04-23T04:36:01.592Z,99.99
2018-04-23T04:37:02.175Z,99.99
2018-04-23T04:38:01.569Z,99.99
2018-04-23T04:39:01.887Z,99.99
2018-04-23T04:40:02.531Z,99.99
2018-04-23T04:41:02.803Z,99.99
2018-04-23T04:42:01.795Z,99.99
2018-04-23T04:43:03.137Z,99.99
2018-04-23T04:44:01.276Z,99.99
2018-04-23T04:45:03.446Z,99.99
2018-04-23T04:46:03.274Z,99.99
2018-04-23T04:47:02.630Z,99.99
2018-04-23T04:48:04.488Z,99.99
2018-04-23T04:49:02.177Z,99.99
2018-04-23T04:50:01.235Z,99.99
2018-04-23T04:51:01.166Z,99.99
2018-04-23T04:52:02.952Z,99.99
2018-04-23T04:53:02.355Z,99.99
2018-04-23T04:54:03.774Z,99.99
2018-04-23T04:55:04.059Z,99.99
2018-04-23T04:56:01.332Z,99.99
2018-04-23T04:57:03.920Z,99.99
2018-04-23T04:58:03.854Z,99.99
2018-04-23T04:59:03.805Z,99.99
2018-04-23T05:00:07.286Z,99.99
2018-04-23T05:01:04.595Z,99.99
2018-04-23T05:02:03.405Z,99.99
2018-04-23T05:03:03.277Z,99.99
2018-04-23T05:04:01.715Z,99.99
2018-04-23T05:05:04.017Z,99.99
2018-04-23T05:06:02.315Z,99.99
2018-04-23T05:07:01.771Z,99.99
2018-04-23T05:08:04.742Z,99.99
2018-04-23T05:09:03.253Z,99.99
2018-04-23T05:10:02.624Z,99.99
2018-04-23T05:11:04.000Z,99.99
2018-04-23T05:12:02.328Z,99.99
2018-04-23T05:13:02.962Z,99.99
2018-04-23T05:14:02.772Z,99.99
2018-04-23T05:15:03.466Z,99.99
2018-04-23T05:16:01.229Z,99.99
2018-04-23T05:17:03.067Z,99.99
2018-04-23T05:18:03.025Z,99.99
2018-04-23T05:19:02.267Z,99.99
2018-04-23T05:20:03.731Z,99.99
2018-04-23T05:21:05.181Z,99.99
2018-04-23T05:22:07.959Z,99.99
2018-04-23T05:23:02.808Z,99.99
2018-04-23T05:24:01.255Z,99.99
2018-04-23T05:25:01.472Z,99.99
2018-04-23T05:26:01.527Z,99.99
2018-04-23T05:27:01.784Z,99.99
2018-04-23T05:28:01.472Z,99.99
2018-04-23T05:29:01.784Z,99.99
2018-04-23T05:30:01.404Z,99.99
2018-04-23T05:31:02.649Z,99.99
2018-04-23T05:32:01.500Z,99.99
2018-04-23T05:33:04.330Z,99.99
2018-04-23T05:34:03.492Z,99.99
2018-04-23T05:35:04.444Z,99.99
2018-04-23T05:36:01.571Z,99.99
2018-04-23T05:37:04.147Z,99.99
2018-04-23T05:38:03.950Z,99.99
2018-04-23T05:39:03.939Z,99.99
2018-04-23T05:40:01.798Z,99.99
2018-04-23T05:41:02.905Z,99.99
2018-04-23T05:42:03.711Z,99.99
2018-04-23T05:43:03.742Z,99.99
2018-04-23T05:44:02.651Z,99.99
2018-04-23T05:45:08.422Z,99.99
2018-04-23T05:46:04.811Z,99.99
2018-04-23T05:47:04.425Z,99.99
2018-04-23T05:48:01.924Z,99.99
2018-04-23T05:49:03.808Z,99.99
2018-04-23T05:50:02.793Z,99.99
2018-04-23T05:51:02.077Z,99.99
2018-04-23T05:52:01.373Z,99.99
2018-04-23T05:53:03.239Z,99.99
2018-04-23T05:54:05.419Z,99.99
2018-04-23T05:55:02.677Z,99.99
2018-04-23T05:56:01.791Z,99.99
2018-04-23T05:57:05.309Z,99.99
2018-04-23T05:58:04.184Z,99.99
2018-04-23T05:59:01.570Z,99.77
2018-04-23T06:00:03.690Z,99.39
2018-04-23T06:01:04.691Z,99.99
2018-04-23T06:02:04.780Z,99.99
2018-04-23T06:03:04.442Z,99.99
2018-04-23T06:04:06.013Z,99.99
2018-04-23T06:05:05.500Z,99.99
2018-04-23T06:06:03.694Z,99.77
2018-04-23T06:07:04.034Z,98.62
2018-04-23T06:08:02.575Z,98.38
2018-04-23T06:09:02.680Z,98.53
2018-04-23T06:10:04.326Z,98.33
2018-04-23T06:11:04.217Z,98.62
2018-04-23T06:12:04.736Z,98.96
2018-04-23T06:13:04.187Z,99.99
2018-04-23T06:14:02.868Z,99.99
2018-04-23T06:15:04.747Z,98.96
2018-04-23T06:16:04.312Z,99.99
2018-04-23T06:17:03.727Z,99.99
2018-04-23T06:18:02.273Z,99.99
2018-04-23T06:19:03.099Z,99.53
2018-04-23T06:20:04.949Z,99.24
2018-04-23T06:21:03.533Z,98.00
2018-04-23T06:22:03.633Z,98.24
2018-04-23T06:23:04.587Z,96.08
2018-04-23T06:24:01.421Z,91.52
2018-04-23T06:25:01.730Z,92.96
2018-04-23T06:26:01.523Z,94.88
2018-04-23T06:27:02.416Z,93.19
2018-04-23T06:28:02.862Z,93.39
2018-04-23T06:29:03.198Z,93.01
2018-04-23T06:30:01.986Z,90.60
2018-04-23T06:31:02.079Z,88.10
2018-04-23T06:32:01.403Z,87.38
2018-04-23T06:33:02.245Z,88.59
2018-04-23T06:34:01.373Z,88.15
2018-04-23T06:35:01.678Z,86.90
2018-04-23T06:36:01.537Z,87.48
2018-04-23T06:37:01.452Z,87.86
2018-04-23T06:38:03.094Z,88.01
2018-04-23T06:39:02.539Z,89.69
2018-04-23T06:40:01.511Z,89.46
2018-04-23T06:41:02.754Z,91.47
2018-04-23T06:42:03.960Z,93.15
2018-04-23T06:43:01.611Z,93.25
2018-04-23T06:44:01.785Z,93.49
2018-04-23T06:45:01.392Z,93.88
2018-04-23T06:46:01.478Z,93.35
2018-04-23T06:47:01.513Z,94.50
2018-04-23T06:48:02.387Z,94.89
2018-04-23T06:49:02.508Z,95.31
2018-04-23T06:50:01.604Z,94.93
2018-04-23T06:51:02.897Z,95.51
2018-04-23T06:52:02.835Z,94.84
2018-04-23T06:53:01.516Z,94.17
2018-04-23T06:54:01.631Z,92.77
2018-04-23T06:55:05.054Z,91.05
2018-04-23T06:56:02.092Z,90.61
2018-04-23T06:57:25.318Z,90.37
2018-04-23T06:58:03.541Z,93.25
2018-04-23T06:59:02.451Z,93.21
2018-04-23T07:00:03.524Z,92.91
2018-04-23T07:01:01.514Z,92.44
2018-04-23T07:02:01.779Z,91.86
2018-04-23T07:03:03.535Z,91.67
2018-04-23T07:04:02.727Z,91.38
2018-04-23T07:05:01.549Z,91.05
2018-04-23T07:06:04.979Z,90.52
2018-04-23T07:07:01.562Z,90.47
2018-04-23T07:08:04.499Z,91.33
2018-04-23T07:09:02.786Z,91.05
2018-04-23T07:10:01.521Z,89.70
2018-04-23T07:11:04.710Z,89.26
2018-04-23T07:12:01.930Z,89.07
2018-04-23T07:13:01.569Z,89.07
2018-04-23T07:14:02.148Z,89.40
2018-04-23T07:15:02.590Z,87.96
2018-04-23T07:16:01.509Z,88.83
2018-04-23T07:17:01.625Z,88.35
2018-04-23T07:18:03.465Z,87.49
2018-04-23T07:19:02.322Z,88.54
2018-04-23T07:20:01.660Z,88.78
2018-04-23T07:21:02.555Z,84.50
2018-04-23T07:22:02.747Z,82.81
2018-04-23T07:23:01.751Z,81.56
2018-04-23T07:24:09.783Z,79.77
2018-04-23T07:25:02.331Z,77.44
2018-04-23T07:26:01.864Z,78.11
2018-04-23T07:27:01.786Z,76.51
2018-04-23T07:28:03.481Z,76.38
2018-04-23T07:29:01.897Z,75.01
2018-04-23T07:30:02.395Z,72.38
2018-04-23T07:31:23.822Z,71.12
2018-04-23T07:32:08.243Z,70.97
2018-04-23T07:33:15.610Z,71.09
2018-04-23T07:34:03.117Z,71.09
2018-04-23T07:36:27.205Z,68.30
2018-04-23T07:37:03.611Z,66.66
2018-04-23T07:38:09.116Z,63.24
2018-04-23T07:39:06.890Z,62.85
2018-04-23T07:40:07.832Z,62.76
2018-04-23T07:41:29.712Z,62.21
2018-04-23T07:42:02.846Z,63.34
2018-04-23T07:43:03.233Z,61.79
2018-04-23T07:44:05.064Z,60.01
2018-04-23T07:45:07.790Z,59.79
2018-04-23T07:46:06.153Z,59.82
2018-04-23T07:47:06.336Z,59.59
2018-04-23T07:48:01.702Z,60.63
2018-04-23T07:49:02.360Z,61.69
2018-04-23T07:50:04.198Z,59.63
2018-04-23T07:51:02.580Z,58.75
2018-04-23T07:52:08.387Z,57.75
2018-04-23T07:53:03.789Z,57.84
2018-04-23T07:54:02.836Z,58.33
2018-04-23T07:55:03.643Z,55.93
2018-04-23T07:56:02.351Z,56.85
2018-04-23T07:57:02.883Z,58.23
2018-04-23T07:58:04.092Z,58.26
2018-04-23T07:59:05.286Z,56.83
2018-04-23T08:00:02.422Z,55.79
2018-04-23T08:01:02.336Z,54.85
2018-04-23T08:02:04.773Z,54.45
2018-04-23T08:03:04.853Z,54.60
2018-04-23T08:04:06.939Z,56.90
2018-04-23T08:05:04.865Z,56.15
2018-04-23T08:06:02.996Z,55.02
2018-04-23T08:07:03.782Z,53.13
2018-04-23T08:08:10.618Z,53.61
2018-04-23T08:09:04.445Z,54.49
2018-04-23T08:10:05.016Z,55.07
2018-04-23T08:12:35.067Z,53.02
2018-04-23T08:13:40.425Z,52.28
2018-04-23T08:14:40.870Z,52.93
2018-04-23T08:15:41.824Z,53.15
2018-04-23T08:16:40.800Z,51.81
2018-04-23T08:17:43.475Z,51.18
2018-04-23T08:18:42.846Z,50.92
2018-04-23T08:19:41.074Z,51.28
2018-04-23T08:20:44.464Z,55.42
2018-04-23T08:21:44.963Z,57.70
2018-04-23T08:22:44.684Z,61.47
2018-04-23T08:23:46.198Z,58.33
2018-04-23T08:24:48.131Z,55.83
2018-04-23T08:25:45.560Z,53.02
2018-04-23T08:26:42.117Z,53.49
2018-04-23T08:33:18.659Z,58.63
2018-04-23T08:39:37.891Z,57.12
2018-04-23T08:40:15.993Z,57.34
2018-04-23T08:42:16.906Z,55.49
2018-04-23T08:43:16.440Z,53.09
2018-04-23T08:44:51.769Z,56.70
2018-04-23T08:45:15.891Z,60.05
2018-04-23T08:46:15.834Z,60.50
2018-04-23T08:47:15.837Z,59.47
2018-04-23T08:48:15.850Z,57.65
2018-04-23T08:49:15.860Z,56.56
2018-04-23T08:50:18.345Z,57.95
2018-04-23T08:51:15.906Z,58.89
2018-04-23T08:52:16.762Z,56.56
2018-04-23T08:53:15.878Z,57.30
2018-04-23T08:54:15.944Z,53.41
2018-04-23T08:55:15.932Z,51.06
2018-04-23T08:56:15.973Z,48.88
2018-04-23T08:57:15.950Z,51.37
2018-04-23T08:58:16.262Z,51.43
2018-04-23T08:59:16.196Z,50.26
2018-04-23T09:00:15.965Z,50.82
2018-04-23T09:01:16.034Z,47.08
2018-04-23T09:02:16.100Z,46.08
2018-04-23T09:03:16.127Z,46.88
2018-04-23T09:04:16.157Z,46.35
2018-04-23T09:05:16.038Z,50.02
2018-04-23T09:06:16.071Z,51.21
2018-04-23T09:07:16.129Z,50.92
2018-04-23T09:08:16.348Z,50.46
2018-04-23T09:09:16.153Z,51.91
2018-04-23T09:10:16.163Z,51.33
2018-04-23T09:11:16.137Z,49.39
2018-04-23T09:12:16.156Z,49.77
2018-04-23T09:13:16.178Z,49.58
2018-04-23T09:14:16.254Z,49.95
2018-04-23T09:15:16.249Z,49.00
2018-04-23T09:16:16.313Z,49.29
2018-04-23T09:17:16.621Z,52.27
2018-04-23T09:18:16.321Z,56.67
2018-04-23T09:19:16.327Z,58.51
2018-04-23T09:20:16.444Z,54.01
2018-04-23T09:21:16.351Z,51.45
2018-04-23T09:22:16.309Z,49.27
2018-04-23T09:23:16.348Z,47.49
2018-04-23T09:24:16.391Z,47.86
2018-04-23T09:25:17.280Z,48.35
2018-04-23T09:26:16.416Z,52.84
2018-04-23T09:27:16.449Z,57.96
2018-04-23T09:28:16.413Z,56.28
2018-04-23T09:29:16.474Z,54.08
2018-04-23T09:30:17.288Z,55.38
2018-04-23T09:31:16.551Z,58.97
2018-04-23T09:32:16.524Z,56.35
2018-04-23T09:33:16.494Z,52.87
2018-04-23T09:34:16.563Z,49.66
2018-04-23T09:35:16.531Z,51.44
2018-04-23T09:36:16.635Z,54.85
2018-04-23T09:37:16.574Z,56.70
2018-04-23T09:38:16.646Z,56.86
2018-04-23T09:39:16.632Z,56.39
2018-04-23T09:40:16.667Z,57.90
2018-04-23T09:41:16.672Z,58.91
2018-04-23T09:42:16.994Z,61.19
2018-04-23T09:43:16.661Z,61.51
2018-04-23T09:44:16.759Z,59.28
2018-04-23T09:45:16.787Z,54.95
2018-04-23T09:46:16.723Z,50.96
2018-04-23T09:47:16.801Z,51.37
2018-04-23T09:48:16.713Z,48.08
2018-04-23T09:49:16.742Z,49.46
2018-04-23T09:50:16.819Z,48.13
2018-04-23T09:51:16.800Z,46.39
2018-04-23T09:52:16.834Z,49.92
2018-04-23T09:53:16.869Z,48.37
2018-04-23T09:54:16.835Z,49.49
2018-04-23T09:55:16.853Z,49.58
2018-04-23T09:56:16.876Z,47.72
2018-04-23T09:57:16.924Z,46.23
2018-04-23T09:58:16.927Z,44.19
2018-04-23T09:59:16.934Z,44.29
2018-04-23T10:00:16.926Z,44.85
2018-04-23T10:01:16.916Z,45.21
2018-04-23T10:02:16.981Z,46.52
2018-04-23T10:03:17.012Z,44.97
2018-04-23T10:04:17.039Z,41.47
2018-04-23T10:05:17.067Z,43.34
2018-04-23T10:06:17.017Z,42.54
2018-04-23T10:07:17.062Z,44.03
2018-04-23T10:08:17.034Z,45.75
2018-04-23T10:09:17.163Z,46.45
2018-04-23T10:10:17.076Z,45.53
2018-04-23T10:11:17.100Z,45.39
2018-04-23T10:12:17.092Z,47.60
2018-04-23T10:13:17.160Z,46.77
2018-04-23T10:14:17.177Z,44.58
2018-04-23T10:15:17.217Z,44.34
2018-04-23T10:16:17.181Z,46.80
2018-04-23T10:17:17.200Z,47.74
2018-04-23T10:18:17.822Z,47.77
2018-04-23T10:19:17.278Z,47.55
2018-04-23T10:20:17.234Z,50.18
2018-04-23T10:21:17.332Z,51.83
2018-04-23T10:22:17.351Z,49.22
2018-04-23T10:23:17.308Z,48.64
2018-04-23T10:24:17.308Z,47.86
2018-04-23T10:25:17.328Z,47.74
2018-04-23T10:26:17.831Z,49.15
2018-04-23T10:27:18.324Z,50.76
2018-04-23T10:28:17.405Z,52.97
2018-04-23T10:29:17.391Z,51.06
2018-04-23T10:30:17.431Z,50.07
2018-04-23T10:31:17.457Z,49.07
2018-04-23T10:32:17.460Z,48.64
2018-04-23T10:33:17.455Z,46.38
2018-04-23T10:34:17.466Z,44.92
2018-04-23T10:35:17.488Z,47.77
2018-04-23T10:36:17.537Z,48.79
2018-04-23T10:37:18.368Z,50.76
2018-04-23T10:38:17.565Z,50.98
2018-04-23T10:39:17.554Z,52.69
2018-04-23T10:40:17.621Z,54.69
2018-04-23T10:41:17.599Z,54.69
2018-04-23T10:42:17.590Z,55.46
2018-04-23T10:43:17.600Z,54.50
2018-04-23T10:44:17.619Z,55.08
2018-04-23T10:45:17.634Z,54.79
2018-04-23T10:46:17.701Z,54.33
2018-04-23T10:47:18.335Z,51.85
2018-04-23T10:48:17.676Z,49.92
2018-04-23T10:49:17.675Z,47.50
2018-04-23T10:50:17.711Z,45.80
2018-04-23T10:51:17.736Z,43.51
2018-04-23T10:52:18.073Z,42.64
2018-04-23T10:53:17.774Z,42.69
2018-04-23T10:54:17.773Z,43.33
2018-04-23T10:55:17.788Z,43.62
2018-04-23T10:56:17.779Z,44.96
2018-04-23T10:57:17.787Z,46.08
2018-04-23T10:58:17.805Z,47.41
2018-04-23T10:59:17.816Z,47.62
2018-04-23T11:00:17.863Z,50.18
2018-04-23T11:01:17.844Z,49.49
2018-04-23T11:02:17.859Z,50.33
2018-04-23T11:03:17.872Z,53.08
2018-04-23T11:04:17.944Z,54.40
2018-04-23T11:05:18.433Z,54.02
2018-04-23T11:06:17.895Z,54.33
2018-04-23T11:07:17.942Z,53.11
2018-04-23T11:08:17.939Z,53.20
2018-04-23T11:09:17.960Z,54.27
2018-04-23T11:10:18.002Z,54.05
2018-04-23T11:11:17.963Z,54.27
2018-04-23T11:12:17.969Z,53.78
2018-04-23T11:13:18.003Z,56.20
2018-04-23T11:14:18.016Z,56.46
2018-04-23T11:15:18.022Z,56.49
2018-04-23T11:16:18.015Z,59.36
2018-04-23T11:17:18.049Z,58.62
2018-04-23T11:18:18.035Z,57.62
2018-04-23T11:19:18.059Z,56.37
2018-04-23T11:20:18.161Z,55.99
2018-04-23T11:21:18.074Z,53.99
2018-04-23T11:22:18.136Z,54.86
2018-04-23T11:23:18.080Z,56.04
2018-04-23T11:24:18.096Z,55.20
2018-04-23T11:25:18.200Z,54.24
2018-04-23T11:26:18.109Z,53.56
2018-04-23T11:27:18.112Z,52.89
2018-04-23T11:28:18.125Z,52.76
2018-04-23T11:29:18.137Z,55.59
2018-04-23T11:30:18.204Z,54.50
2018-04-23T11:31:18.191Z,52.67
2018-04-23T11:32:18.162Z,52.11
2018-04-23T11:33:18.163Z,53.17
2018-04-23T11:34:18.241Z,52.79
2018-04-23T11:35:18.230Z,51.92
2018-04-23T11:36:18.181Z,52.09
2018-04-23T11:37:18.194Z,51.32
2018-04-23T11:38:18.220Z,51.44
2018-04-23T11:39:18.217Z,51.73
2018-04-23T11:40:18.223Z,51.82
2018-04-23T11:41:18.285Z,54.36
2018-04-23T11:42:18.290Z,52.43
2018-04-23T11:43:18.267Z,50.98
2018-04-23T11:44:18.242Z,51.65
2018-04-23T11:45:18.338Z,51.95
2018-04-23T11:46:18.315Z,51.85
2018-04-23T11:47:18.321Z,51.73
2018-04-23T11:48:18.873Z,52.67
2018-04-23T11:49:18.434Z,53.08
2018-04-23T11:50:18.334Z,53.27
2018-04-23T11:51:18.311Z,53.37
2018-04-23T11:52:18.332Z,52.81
2018-04-23T11:53:18.315Z,53.11
2018-04-23T11:54:18.325Z,52.43
2018-04-23T11:55:18.335Z,50.57
2018-04-23T11:56:18.398Z,51.51
2018-04-23T11:57:18.431Z,52.89
2018-04-23T11:58:18.470Z,55.13
2018-04-23T11:59:18.436Z,55.23
2018-04-23T12:00:18.397Z,53.71
2018-04-23T12:01:18.527Z,51.75
2018-04-23T12:02:18.495Z,51.56
2018-04-23T12:03:18.439Z,50.98
2018-04-23T12:04:18.465Z,50.50
2018-04-23T12:05:18.438Z,52.45
2018-04-23T12:06:18.546Z,51.78
2018-04-23T12:07:18.474Z,51.01
2018-04-23T12:08:18.477Z,52.36
2018-04-23T12:09:18.511Z,53.23
2018-04-23T12:10:18.472Z,52.77
2018-04-23T12:11:18.582Z,51.61
2018-04-23T12:12:18.535Z,49.85
2018-04-23T12:13:18.509Z,50.43
2018-04-23T12:14:18.500Z,51.07
2018-04-23T12:15:18.520Z,54.36
2018-04-23T12:16:18.605Z,52.81
2018-04-23T12:17:18.525Z,52.72
2018-04-23T12:18:19.541Z,51.59
2018-04-23T12:19:18.548Z,51.39
2018-04-23T12:20:18.519Z,50.93
2018-04-23T12:21:18.530Z,49.92
2018-04-23T12:22:18.536Z,51.27
2018-04-23T12:23:18.609Z,51.10
2018-04-23T12:24:18.621Z,50.79
2018-04-23T12:25:18.587Z,48.97
2018-04-23T12:26:33.855Z,49.37
2018-04-23T12:27:18.568Z,51.75
2018-04-23T12:28:18.660Z,51.95
2018-04-23T12:29:18.601Z,52.40
2018-04-23T12:30:18.687Z,53.39
2018-04-23T12:31:18.686Z,53.39
2018-04-23T12:32:18.739Z,54.10
2018-04-23T12:33:18.655Z,51.29
2018-04-23T12:34:18.656Z,49.07
2018-04-23T12:35:18.639Z,50.62
2018-04-23T12:36:18.635Z,47.89
2018-04-23T12:37:18.632Z,48.64
2018-04-23T12:38:18.669Z,49.32
2018-04-23T12:39:18.678Z,50.45
2018-04-23T12:40:18.663Z,53.15
2018-04-23T12:41:19.393Z,52.25
2018-04-23T12:42:18.693Z,52.61
2018-04-23T12:43:18.761Z,53.19
2018-04-23T12:44:18.700Z,54.16
2018-04-23T12:45:18.708Z,55.02
2018-04-23T12:46:18.736Z,54.35
2018-04-23T12:47:18.703Z,54.16
2018-04-23T12:48:18.710Z,53.94
2018-04-23T12:49:18.748Z,53.65
2018-04-23T12:50:19.406Z,54.90
2018-04-23T12:51:18.808Z,55.38
2018-04-23T12:52:18.775Z,54.25
2018-04-23T12:53:18.855Z,54.83
2018-04-23T12:54:18.818Z,53.94
2018-04-23T12:55:18.779Z,54.80
2018-04-23T12:56:18.764Z,54.83
2018-04-23T12:57:18.796Z,54.57
2018-04-23T12:58:18.796Z,54.66
2018-04-23T12:59:18.792Z,54.47
2018-04-23T13:00:18.800Z,54.47
2018-04-23T13:01:18.794Z,53.51
2018-04-23T13:02:18.787Z,54.35
2018-04-23T13:03:18.901Z,54.28
2018-04-23T13:04:18.874Z,55.02
2018-04-23T13:05:19.403Z,54.16
2018-04-23T13:06:18.830Z,54.25